Time;durP1;ratioP1;P1;durP2;ratioP2;P2;SDS_P1;SDS_P2;PMS_P1;PMS_P2;Temp;Humidity;BMP_temperature;BMP_pressure;BME280_temperature;BME280_humidity;BME280_pressure;Samples;Min_cycle;Max_cycle;Signal;HPM_P1;HPM_P2
2023/04/02 00:00:17;;;;;;;13.50;10.60;;;;;;;10.60;82.21;99377.21;108144;1254;73151;-79
2023/04/02 00:03:00;;;;;;;13.10;10.00;;;;;;;10.58;82.25;99379.20;108108;1254;73925;-80
2023/04/02 00:05:29;;;;;;;14.00;9.90;;;;;;;10.55;82.24;99376.40;108097;1254;61233;-79
2023/04/02 00:07:59;;;;;;;14.60;10.10;;;;;;;10.54;82.27;99373.86;108149;1254;61105;-79
2023/04/02 00:10:30;;;;;;;14.50;10.20;;;;;;;10.52;82.34;99374.14;108155;1254;75881;-80
2023/04/02 00:13:11;;;;;;;12.90;9.80;;;;;;;10.51;82.31;99375.66;108159;1254;71993;-80
2023/04/02 00:15:42;;;;;;;13.10;10.10;;;;;;;10.48;82.24;99371.58;108108;1259;73285;-80
2023/04/02 00:18:20;;;;;;;15.10;10.60;;;;;;;10.45;82.47;99371.29;108145;1254;62708;-80
2023/04/02 00:21:13;;;;;;;13.50;9.70;;;;;;;10.42;82.50;99373.94;108098;1254;61317;-79
2023/04/02 00:23:42;;;;;;;15.70;10.30;;;;;;;10.39;82.56;99373.33;108169;1254;74978;-80
2023/04/02 00:26:33;;;;;;;15.70;10.50;;;;;;;10.39;82.65;99374.92;108069;1254;72959;-79
2023/04/02 00:29:02;;;;;;;14.10;10.90;;;;;;;10.37;82.64;99374.11;108149;1259;73443;-80
2023/04/02 00:31:37;;;;;;;16.80;10.80;;;;;;;10.35;82.67;99373.75;108010;1257;62907;-80
2023/04/02 00:34:08;;;;;;;15.00;10.50;;;;;;;10.37;82.68;99372.03;107928;1256;61727;-80
2023/04/02 00:36:36;;;;;;;14.10;10.20;;;;;;;10.39;82.77;99372.21;108062;1257;72385;-80
2023/04/02 00:39:12;;;;;;;13.40;10.50;;;;;;;10.37;82.71;99371.87;108134;1254;72075;-80
2023/04/02 00:41:45;;;;;;;14.50;11.20;;;;;;;10.32;82.69;99374.90;108120;1254;72047;-80
2023/04/02 00:44:20;;;;;;;15.90;10.70;;;;;;;10.28;82.72;99375.43;108101;1254;61223;-80
2023/04/02 00:46:49;;;;;;;15.80;11.40;;;;;;;10.24;82.78;99373.91;108124;1253;61166;-80
2023/04/02 00:49:35;;;;;;;14.40;10.70;;;;;;;10.22;82.85;99376.59;107946;1254;75019;-80
2023/04/02 00:52:09;;;;;;;13.10;9.70;;;;;;;10.21;82.89;99375.27;108050;1256;72001;-81
2023/04/02 00:54:44;;;;;;;15.10;10.50;;;;;;;10.20;82.98;99375.70;108060;1257;71626;-82
2023/04/02 00:57:16;;;;;;;13.60;10.50;;;;;;;10.19;83.08;99376.77;108163;1257;62976;-81
2023/04/02 01:00:06;;;;;;;15.30;11.00;;;;;;;10.18;83.04;99376.83;108249;1257;61139;-79
2023/04/02 01:02:39;;;;;;;13.80;10.30;;;;;;;10.21;83.07;99377.14;108280;1259;73654;-80
2023/04/02 01:05:16;;;;;;;13.20;9.80;;;;;;;10.23;83.05;99382.39;108073;1256;72256;-81
2023/04/02 01:08:18;;;;;;;14.40;11.20;;;;;;;10.24;83.12;99381.85;108159;1255;71952;-81
2023/04/02 01:11:03;;;;;;;13.30;10.60;;;;;;;10.26;83.03;99381.15;108119;1256;62770;-80
2023/04/02 01:13:49;;;;;;;14.30;10.90;;;;;;;10.27;83.06;99382.65;107880;1256;61263;-80
2023/04/02 01:16:29;;;;;;;13.60;10.40;;;;;;;10.26;83.11;99381.95;108040;1257;74220;-80
2023/04/02 01:19:26;;;;;;;14.10;10.10;;;;;;;10.26;83.07;99384.36;108183;1256;73688;-80
2023/04/02 01:22:20;;;;;;;14.40;9.90;;;;;;;10.26;83.09;99385.36;108113;1256;73422;-79
2023/04/02 01:24:49;;;;;;;15.00;11.00;;;;;;;10.27;83.12;99382.98;108111;1256;62044;-79
2023/04/02 01:27:18;;;;;;;15.20;10.50;;;;;;;10.26;83.13;99383.55;108098;1254;61263;-79
2023/04/02 01:29:49;;;;;;;14.70;10.20;;;;;;;10.26;83.19;99382.96;108108;1257;74646;-79
2023/04/02 01:32:19;;;;;;;15.20;10.80;;;;;;;10.25;83.09;99384.25;108031;1257;72615;-79
2023/04/02 01:34:48;;;;;;;12.60;9.70;;;;;;;10.23;83.09;99384.84;108057;1256;73864;-79
2023/04/02 01:37:43;;;;;;;12.90;9.80;;;;;;;10.22;83.20;99386.67;108001;1256;62979;-80
2023/04/02 01:40:16;;;;;;;13.70;9.80;;;;;;;10.20;83.22;99387.33;108041;1257;61230;-80
2023/04/02 01:43:03;;;;;;;14.20;10.40;;;;;;;10.22;83.28;99390.88;108115;1257;75528;-80
2023/04/02 01:45:33;;;;;;;12.60;9.90;;;;;;;10.24;83.31;99390.30;108115;1257;71935;-80
2023/04/02 01:48:18;;;;;;;15.60;10.40;;;;;;;10.32;83.10;99389.16;107902;1255;72304;-80
2023/04/02 01:50:48;;;;;;;14.20;10.30;;;;;;;10.26;83.40;99394.34;108080;1257;62144;-79
2023/04/02 01:53:17;;;;;;;14.00;9.40;;;;;;;10.24;83.33;99392.26;108033;1255;61237;-79
2023/04/02 01:55:54;;;;;;;13.00;10.10;;;;;;;10.26;83.59;99389.73;108092;1256;75605;-80
2023/04/02 01:58:26;;;;;;;14.30;11.10;;;;;;;10.29;83.42;99393.66;108018;1257;73094;-80
2023/04/02 02:00:56;;;;;;;13.40;9.20;;;;;;;10.27;83.53;99393.97;108017;1256;72167;-80
2023/04/02 02:03:27;;;;;;;;;;;;;;;10.25;83.56;99394.54;107999;1256;63193;-80
2023/04/02 02:05:56;;;;;;;16.30;10.60;;;;;;;10.25;83.62;99395.98;107991;1256;61238;-80
2023/04/02 02:08:43;;;;;;;15.30;10.90;;;;;;;10.26;83.69;99395.23;107886;1257;73828;-80
2023/04/02 02:11:15;;;;;;;14.20;10.70;;;;;;;10.26;83.68;99394.23;108122;1257;73427;-80
2023/04/02 02:13:50;;;;;;;13.10;10.10;;;;;;;10.27;83.69;99394.92;108074;1254;72565;-80
2023/04/02 02:16:22;;;;;;;14.90;9.40;;;;;;;10.25;83.82;99392.09;108137;1254;61934;-80
2023/04/02 02:18:52;;;;;;;15.90;10.30;;;;;;;10.24;83.75;99392.25;108071;1253;61314;-80
2023/04/02 02:21:47;;;;;;;14.00;10.30;;;;;;;10.25;83.82;99392.73;108122;1256;74761;-79
2023/04/02 02:24:18;;;;;;;15.20;10.40;;;;;;;10.26;83.87;99392.15;108143;1256;73092;-79
2023/04/02 02:26:48;;;;;;;16.30;11.40;;;;;;;10.24;83.79;99390.71;108159;1257;73324;-80
2023/04/02 02:29:18;;;;;;;13.10;10.40;;;;;;;10.22;83.84;99392.33;108145;1254;62264;-80
2023/04/02 02:31:47;;;;;;;14.40;11.10;;;;;;;10.21;83.96;99393.84;108244;1255;61327;-80
2023/04/02 02:34:18;;;;;;;14.40;10.50;;;;;;;10.21;83.94;99391.39;108008;1257;73020;-79
2023/04/02 02:36:52;;;;;;;12.80;10.40;;;;;;;10.21;83.96;99389.05;108176;1257;72321;-79
2023/04/02 02:39:47;;;;;;;15.00;10.70;;;;;;;10.20;84.07;99393.20;108119;1256;71078;-80
2023/04/02 02:42:28;;;;;;;14.60;10.40;;;;;;;10.18;84.08;99389.77;108114;1256;60989;-80
2023/04/02 02:44:57;;;;;;;16.40;10.80;;;;;;;10.18;84.18;99395.27;108169;1255;61241;-80
2023/04/02 02:47:31;;;;;;;14.80;10.70;;;;;;;10.18;84.17;99400.27;107943;1257;75858;-80
2023/04/02 02:50:05;;;;;;;16.20;11.20;;;;;;;10.18;84.30;99397.48;108163;1256;72332;-78
2023/04/02 02:52:35;;;;;;;13.30;10.20;;;;;;;10.20;84.29;99399.71;108056;1256;72926;-79
2023/04/02 02:55:17;;;;;;;15.90;11.60;;;;;;;10.19;84.30;99397.84;108133;1257;61215;-80
2023/04/02 02:57:57;;;;;;;14.70;10.90;;;;;;;10.18;84.33;99401.76;107926;1256;61173;-80
2023/04/02 03:00:27;;;;;;;13.90;10.70;;;;;;;10.19;84.35;99400.63;108092;1256;73502;-78
2023/04/02 03:02:58;;;;;;;15.40;11.30;;;;;;;10.19;84.34;99400.73;107935;1256;73013;-80
2023/04/02 03:05:29;;;;;;;15.70;10.30;;;;;;;10.19;84.37;99400.63;107888;1261;73447;-80
2023/04/02 03:08:01;;;;;;;14.30;10.60;;;;;;;10.19;84.47;99399.07;108119;1257;60276;-82
2023/04/02 03:10:55;;;;;;;15.40;11.20;;;;;;;10.19;84.54;99403.30;108093;1256;61851;-80
2023/04/02 03:13:34;;;;;;;16.40;12.10;;;;;;;10.18;84.51;99406.94;108125;1254;73968;-80
2023/04/02 03:16:10;;;;;;;14.80;11.30;;;;;;;10.19;84.59;99406.98;108159;1254;72015;-81
2023/04/02 03:18:56;;;;;;;14.90;11.50;;;;;;;10.22;84.58;99411.98;108166;1254;73792;-80
2023/04/02 03:21:38;;;;;;;16.80;12.30;;;;;;;10.24;84.64;99413.13;108131;1254;61917;-80
2023/04/02 03:24:16;;;;;;;14.40;11.10;;;;;;;10.25;84.53;99415.23;108058;1254;61313;-82
2023/04/02 03:27:08;;;;;;;16.80;11.90;;;;;;;10.25;84.60;99418.73;108126;1254;73716;-80
2023/04/02 03:29:40;;;;;;;17.70;12.30;;;;;;;10.22;84.49;99418.10;108054;1256;72688;-80
2023/04/02 03:32:17;;;;;;;17.10;12.00;;;;;;;10.23;84.63;99416.61;108093;1256;72599;-80
2023/04/02 03:34:59;;;;;;;13.50;11.60;;;;;;;10.23;84.75;99418.64;108112;1257;61992;-80
2023/04/02 03:37:31;;;;;;;18.80;12.60;;;;;;;10.24;84.60;99421.14;108029;1256;61207;-79
2023/04/02 03:40:03;;;;;;;16.50;11.60;;;;;;;10.24;84.65;99421.29;108093;1255;74518;-79
2023/04/02 03:42:50;;;;;;;15.10;11.80;;;;;;;10.24;84.66;99424.49;107944;1257;73004;-79
2023/04/02 03:45:27;;;;;;;14.70;11.20;;;;;;;10.24;84.70;99425.67;107953;1256;70267;-79
2023/04/02 03:48:21;;;;;;;16.40;11.80;;;;;;;10.24;84.77;99426.59;107973;1256;61131;-79
2023/04/02 03:51:02;;;;;;;16.40;11.30;;;;;;;10.25;84.82;99430.95;107900;1257;61254;-79
2023/04/02 03:53:31;;;;;;;17.30;13.00;;;;;;;10.27;84.80;99435.17;108152;1257;74937;-79
2023/04/02 03:55:59;;;;;;;16.30;12.00;;;;;;;10.29;84.88;99436.27;108090;1257;73919;-79
2023/04/02 03:58:39;;;;;;;15.10;12.30;;;;;;;10.31;84.81;99434.81;108002;1256;72643;-79
2023/04/02 04:01:19;;;;;;;16.20;12.10;;;;;;;10.31;84.79;99434.49;108050;1256;63245;-80
2023/04/02 04:03:50;;;;;;;18.60;12.60;;;;;;;10.29;84.84;99435.08;108141;1256;61419;-81
2023/04/02 04:06:29;;;;;;;16.30;12.70;;;;;;;10.32;84.92;99439.22;107909;1257;73104;-79
2023/04/02 04:09:22;;;;;;;16.70;12.80;;;;;;;10.34;84.89;99437.18;108170;1257;71932;-80
2023/04/02 04:11:52;;;;;;;16.80;12.90;;;;;;;10.33;84.98;99440.33;108193;1254;73794;-79
2023/04/02 04:14:34;;;;;;;17.90;12.60;;;;;;;10.35;84.73;99439.69;108185;1254;61328;-79
2023/04/02 04:17:37;;;;;;;17.90;13.30;;;;;;;10.60;84.01;99440.43;108082;1256;61122;-82
2023/04/02 04:20:24;;;;;;;17.90;13.10;;;;;;;10.66;83.48;99439.08;108114;1254;73623;-79
2023/04/02 04:22:56;;;;;;;17.40;12.80;;;;;;;10.68;83.37;99441.88;108084;1254;72773;-79
2023/04/02 04:25:32;;;;;;;19.60;12.80;;;;;;;10.68;83.23;99446.54;108096;1254;72643;-80
2023/04/02 04:28:37;;;;;;;17.60;13.50;;;;;;;10.68;83.20;99449.36;108143;1254;61733;-81
2023/04/02 04:31:19;;;;;;;16.50;12.60;;;;;;;10.70;83.18;99454.91;108130;1254;61170;-80
2023/04/02 04:34:01;;;;;;;17.80;13.30;;;;;;;10.69;83.20;99451.91;108136;1254;74735;-80
2023/04/02 04:36:35;;;;;;;18.30;13.40;;;;;;;10.70;83.11;99453.40;107956;1254;71995;-80
2023/04/02 04:39:13;;;;;;;18.70;14.50;;;;;;;10.75;83.16;99452.92;108145;1254;73709;-79
2023/04/02 04:41:45;;;;;;;18.30;13.10;;;;;;;10.78;83.09;99454.52;108143;1254;63041;-80
2023/04/02 04:44:23;;;;;;;15.80;12.70;;;;;;;10.82;82.97;99457.86;108010;1254;61214;-83
2023/04/02 04:47:09;;;;;;;17.40;12.60;;;;;;;10.84;83.02;99460.05;108138;1254;74106;-80
2023/04/02 04:49:49;;;;;;;20.10;15.40;;;;;;;10.85;82.95;99460.44;108193;1254;73312;-80
2023/04/02 04:52:40;;;;;;;17.50;12.90;;;;;;;10.88;82.96;99457.95;108111;1254;72980;-80
2023/04/02 04:55:39;;;;;;;15.50;12.70;;;;;;;10.89;82.91;99459.01;107951;1254;62051;-81
2023/04/02 04:58:21;;;;;;;16.00;13.10;;;;;;;10.89;82.74;99457.79;107950;1254;61173;-81
2023/04/02 05:01:08;;;;;;;17.50;13.40;;;;;;;10.81;83.13;99463.54;108125;1257;74007;-81
2023/04/02 05:03:50;;;;;;;15.90;12.40;;;;;;;10.87;83.15;99463.40;108146;1254;72429;-80
2023/04/02 05:06:38;;;;;;;15.70;12.60;;;;;;;10.87;83.18;99465.92;108119;1254;72715;-80
2023/04/02 05:09:17;;;;;;;15.20;12.00;;;;;;;10.95;83.03;99466.33;108144;1254;63023;-79
2023/04/02 05:12:22;;;;;;;15.50;12.00;;;;;;;10.97;82.86;99467.67;108084;1255;60280;-79
2023/04/02 05:15:15;;;;;;;16.20;12.50;;;;;;;10.99;82.65;99464.48;108061;1256;74634;-80
2023/04/02 05:18:33;;;;;;;15.20;12.50;;;;;;;11.00;82.74;99464.16;108138;1254;72059;-79
2023/04/02 05:21:21;;;;;;;13.30;10.90;;;;;;;11.04;82.70;99468.55;107610;1259;72549;-80
2023/04/02 05:23:55;;;;;;;14.60;11.10;;;;;;;11.03;82.53;99469.30;108093;1254;61698;-80
2023/04/02 05:26:29;;;;;;;14.90;12.00;;;;;;;10.99;82.51;99468.08;108098;1254;61125;-80
2023/04/02 05:29:11;;;;;;;14.50;11.40;;;;;;;10.98;82.42;99468.73;108003;1256;73747;-79
2023/04/02 05:32:02;;;;;;;13.70;10.60;;;;;;;10.99;82.30;99468.72;108011;1255;73879;-79
2023/04/02 05:34:33;;;;;;;12.60;10.50;;;;;;;10.97;82.22;99467.40;107864;1257;72694;-79
2023/04/02 05:37:05;;;;;;;12.50;9.50;;;;;;;10.97;82.33;99467.77;108154;1256;62278;-78
2023/04/02 05:39:46;;;;;;;14.50;11.70;;;;;;;10.98;82.20;99471.45;108126;1255;61125;-78
2023/04/02 05:42:41;;;;;;;11.60;9.80;;;;;;;11.00;82.27;99477.79;108240;1257;74578;-78
2023/04/02 05:45:22;;;;;;;12.80;10.10;;;;;;;11.04;82.28;99478.65;108206;1257;72734;-82
2023/04/02 05:47:58;;;;;;;12.20;9.70;;;;;;;11.04;82.15;99479.44;108074;1257;71380;-81
2023/04/02 05:50:36;;;;;;;13.60;10.80;;;;;;;11.05;82.12;99480.23;108142;1258;61105;-81
2023/04/02 05:53:11;;;;;;;12.80;10.60;;;;;;;11.08;82.05;99484.31;108257;1255;61144;-78
2023/04/02 05:55:44;;;;;;;;;;;;;;;11.10;82.08;99479.77;108139;1256;73769;-77
2023/04/02 05:58:17;;;;;;;12.60;10.00;;;;;;;11.09;82.04;99482.81;108179;1256;72399;-79
2023/04/02 06:01:19;;;;;;;12.10;10.20;;;;;;;11.06;82.03;99486.55;108180;1254;73171;-78
2023/04/02 06:04:07;;;;;;;12.30;10.20;;;;;;;11.07;82.05;99485.08;108675;1255;61895;-79
2023/04/02 06:06:38;;;;;;;13.60;10.10;;;;;;;11.11;82.11;99490.23;108635;1255;61137;-78
2023/04/02 06:09:21;;;;;;;11.60;9.70;;;;;;;11.16;82.14;99491.54;108350;1256;74624;-78
2023/04/02 06:12:01;;;;;;;13.60;10.00;;;;;;;11.21;82.04;99495.11;108242;1257;72799;-80
2023/04/02 06:14:30;;;;;;;13.00;10.50;;;;;;;11.23;81.89;99496.80;108037;1256;72166;-79
2023/04/02 06:16:58;;;;;;;12.40;10.00;;;;;;;11.25;81.91;99499.34;107920;1254;61920;-79
2023/04/02 06:19:33;;;;;;;11.60;10.00;;;;;;;11.26;81.81;99501.04;108184;1256;61247;-79
2023/04/02 06:22:36;;;;;;;11.80;10.00;;;;;;;11.26;81.70;99501.52;108022;1255;74535;-80
2023/04/02 06:25:15;;;;;;;12.90;11.10;;;;;;;11.25;81.56;99506.55;108072;1255;71819;-80
2023/04/02 06:27:45;;;;;;;13.90;12.00;;;;;;;11.24;81.60;99505.72;108147;1256;73590;-81
2023/04/02 06:30:18;;;;;;;12.90;10.60;;;;;;;11.29;81.63;99509.17;108191;1256;62149;-80
2023/04/02 06:32:49;;;;;;;13.00;11.30;;;;;;;11.34;81.58;99510.73;108018;1257;61321;-79
2023/04/02 06:35:19;;;;;;;12.40;11.00;;;;;;;11.35;81.54;99510.17;108142;1256;74371;-79
2023/04/02 06:38:00;;;;;;;13.50;10.90;;;;;;;11.38;81.44;99513.45;108175;1255;73133;-80
2023/04/02 06:40:39;;;;;;;12.00;10.00;;;;;;;11.41;81.42;99512.29;108047;1254;70949;-78
2023/04/02 06:43:44;;;;;;;13.00;11.50;;;;;;;11.44;81.27;99515.88;108078;1254;62984;-81
2023/04/02 06:46:33;;;;;;;12.60;10.90;;;;;;;11.43;81.06;99518.14;108131;1254;61217;-81
2023/04/02 06:49:23;;;;;;;12.50;10.70;;;;;;;11.43;81.07;99516.69;108205;1254;74686;-80
2023/04/02 06:51:56;;;;;;;12.00;10.70;;;;;;;11.45;81.03;99519.34;108153;1254;71112;-81
2023/04/02 06:54:26;;;;;;;12.80;11.20;;;;;;;11.46;81.01;99521.30;108042;1254;71736;-81
2023/04/02 06:57:02;;;;;;;12.10;10.90;;;;;;;11.48;80.89;99522.63;108122;1254;61942;-81
2023/04/02 06:59:39;;;;;;;11.80;10.50;;;;;;;11.33;81.41;99524.52;108135;1256;61529;-81
2023/04/02 07:02:24;;;;;;;12.20;10.90;;;;;;;11.22;81.77;99527.02;108220;1254;74874;-80
2023/04/02 07:04:56;;;;;;;13.40;10.90;;;;;;;11.16;82.22;99527.99;108216;1254;71867;-81
2023/04/02 07:07:29;;;;;;;12.30;11.00;;;;;;;11.15;82.29;99528.00;108182;1254;74013;-79
2023/04/02 07:10:03;;;;;;;12.50;10.50;;;;;;;11.16;82.38;99530.78;108121;1254;59948;-80
2023/04/02 07:12:32;;;;;;;10.70;9.60;;;;;;;11.16;82.39;99533.61;108246;1254;60937;-79
2023/04/02 07:15:04;;;;;;;12.80;10.10;;;;;;;11.16;82.40;99533.56;108256;1254;73734;-78
2023/04/02 07:17:35;;;;;;;11.00;9.80;;;;;;;11.23;82.52;99531.70;108202;1255;72674;-80
2023/04/02 07:20:06;;;;;;;10.80;9.40;;;;;;;11.27;82.61;99534.98;108137;1255;73591;-80
2023/04/02 07:22:34;;;;;;;10.30;8.60;;;;;;;11.36;82.71;99536.04;108095;1255;62929;-79
2023/04/02 07:25:05;;;;;;;9.40;8.40;;;;;;;11.44;82.68;99542.09;108131;1256;61136;-79
2023/04/02 07:27:38;;;;;;;10.00;8.90;;;;;;;11.25;83.64;99541.73;104120;1253;5261121;-79
2023/04/02 07:30:07;;;;;;;9.30;8.30;;;;;;;11.27;84.12;99544.29;108145;1254;71553;-80
2023/04/02 07:32:37;;;;;;;9.40;8.30;;;;;;;11.54;83.19;99546.38;108142;1254;72168;-80
2023/04/02 07:35:07;;;;;;;8.70;7.80;;;;;;;11.64;82.78;99545.20;108173;1254;61870;-79
2023/04/02 07:37:37;;;;;;;9.90;7.10;;;;;;;11.63;82.26;99543.02;108135;1254;61480;-80
2023/04/02 07:40:14;;;;;;;9.00;6.60;;;;;;;11.62;82.18;99546.77;108163;1254;74806;-80
2023/04/02 07:42:43;;;;;;;7.10;6.40;;;;;;;11.62;82.00;99546.41;108122;1254;72036;-80
2023/04/02 07:45:12;;;;;;;6.70;6.00;;;;;;;11.61;81.90;99549.23;108140;1255;73566;-80
2023/04/02 07:47:41;;;;;;;6.90;6.10;;;;;;;11.61;81.76;99551.49;108130;1254;63210;-80
2023/04/02 07:50:09;;;;;;;7.70;6.70;;;;;;;11.61;81.63;99553.41;108125;1257;61139;-80
2023/04/02 07:52:41;;;;;;;7.30;5.60;;;;;;;11.64;81.68;99554.92;107963;1257;75847;-79
2023/04/02 07:55:19;;;;;;;6.60;5.60;;;;;;;11.67;81.50;99554.73;108099;1256;72534;-79
2023/04/02 07:57:51;;;;;;;7.00;5.30;;;;;;;11.62;81.53;99555.11;108046;1255;72905;-79
2023/04/02 08:00:22;;;;;;;6.00;5.10;;;;;;;11.82;81.16;99554.70;108107;1256;62294;-79
2023/04/02 08:02:52;;;;;;;6.50;5.20;;;;;;;11.93;80.17;99550.70;108093;1255;61139;-80
2023/04/02 08:05:21;;;;;;;6.30;5.10;;;;;;;11.88;79.64;99552.10;108075;1255;75594;-80
2023/04/02 08:07:54;;;;;;;5.90;5.20;;;;;;;11.69;79.78;99552.95;108122;1254;71707;-80
2023/04/02 08:10:23;;;;;;;6.40;5.20;;;;;;;11.75;79.65;99553.39;108162;1254;71960;-79
2023/04/02 08:12:56;;;;;;;6.60;5.40;;;;;;;11.80;79.62;99553.63;108113;1254;61686;-80
2023/04/02 08:15:26;;;;;;;5.70;5.10;;;;;;;11.82;79.62;99552.44;108130;1254;61222;-81
2023/04/02 08:17:54;;;;;;;6.40;5.30;;;;;;;11.86;79.60;99554.11;108108;1254;76170;-80
2023/04/02 08:20:23;;;;;;;6.20;5.40;;;;;;;11.76;79.97;99557.08;108077;1254;70599;-80
2023/04/02 08:22:53;;;;;;;6.30;5.30;;;;;;;11.74;80.36;99559.45;108121;1254;72564;-80
2023/04/02 08:25:26;;;;;;;7.80;6.00;;;;;;;11.78;80.55;99558.86;108121;1254;61096;-80
2023/04/02 08:27:56;;;;;;;6.90;6.00;;;;;;;11.99;79.83;99557.02;108109;1254;61327;-79
2023/04/02 08:30:25;;;;;;;7.30;6.40;;;;;;;12.05;79.51;99558.92;108114;1254;72558;-80
2023/04/02 08:32:59;;;;;;;7.50;6.40;;;;;;;12.07;79.36;99558.36;108128;1254;72440;-80
2023/04/02 08:35:28;;;;;;;6.90;5.70;;;;;;;12.08;79.27;99559.36;108075;1258;73900;-80
2023/04/02 08:37:57;;;;;;;6.80;5.80;;;;;;;12.05;79.15;99560.95;108079;1254;63187;-81
2023/04/02 08:40:35;;;;;;;6.40;5.80;;;;;;;12.03;79.11;99563.39;108158;1254;61626;-80
2023/04/02 08:43:41;;;;;;;7.40;5.80;;;;;;;12.06;79.12;99567.84;108149;1254;74688;-80
2023/04/02 08:46:29;;;;;;;6.90;5.60;;;;;;;12.06;78.99;99571.87;108170;1254;73018;-78
2023/04/02 08:49:11;;;;;;;7.00;6.30;;;;;;;12.08;78.90;99572.80;108220;1254;73198;-80
2023/04/02 08:51:41;;;;;;;6.40;5.70;;;;;;;12.13;79.10;99574.00;108165;1254;61764;-79
2023/04/02 08:54:24;;;;;;;6.30;5.40;;;;;;;12.23;79.11;99573.86;108214;1254;61356;-79
2023/04/02 08:56:55;;;;;;;6.70;5.30;;;;;;;12.29;79.01;99578.36;108122;1254;73579;-79
2023/04/02 08:59:29;;;;;;;5.90;5.20;;;;;;;12.34;78.89;99579.45;108230;1254;72886;-79
2023/04/02 09:02:35;;;;;;;8.20;5.40;;;;;;;12.38;78.77;99577.90;108133;1254;71382;-80
2023/04/02 09:05:05;;;;;;;6.90;5.90;;;;;;;12.34;78.51;99579.63;108161;1254;61324;-80
2023/04/02 09:07:38;;;;;;;8.20;6.30;;;;;;;12.22;78.58;99579.77;108096;1255;61665;-79
2023/04/02 09:10:22;;;;;;;6.90;6.20;;;;;;;12.10;78.33;99585.02;108060;1255;73999;-80
2023/04/02 09:13:05;;;;;;;8.60;7.50;;;;;;;12.00;78.48;99586.82;107886;1255;73496;-80
2023/04/02 09:15:34;;;;;;;;;;;;;;;12.03;78.27;99589.52;108095;1257;73630;-79
2023/04/02 09:18:20;;;;;;;9.10;8.10;;;;;;;11.95;78.15;99589.36;108076;1256;62397;-79
2023/04/02 09:21:00;;;;;;;10.10;9.00;;;;;;;11.86;78.32;99590.83;108122;1254;61744;-80
2023/04/02 09:23:35;;;;;;;11.60;9.70;;;;;;;11.82;78.46;99595.67;108110;1254;74714;-79
2023/04/02 09:26:31;;;;;;;10.30;9.20;;;;;;;11.78;78.52;99595.35;108105;1254;71539;-80
2023/04/02 09:29:24;;;;;;;11.40;10.20;;;;;;;11.75;78.62;99596.67;108127;1254;73592;-80
2023/04/02 09:32:50;;;;;;;13.90;12.40;;;;;;;11.76;78.82;99594.70;108067;1254;62985;-81
2023/04/02 09:35:24;;;;;;;14.70;12.30;;;;;;;11.75;78.79;99597.11;108180;1254;61133;-80
2023/04/02 09:38:06;;;;;;;15.00;13.30;;;;;;;11.73;78.86;99603.02;108135;1259;75624;-79
2023/04/02 09:40:42;;;;;;;;;;;;;;;11.69;78.90;99602.42;108097;1256;74196;-79
2023/04/02 09:43:20;;;;;;;15.00;13.40;;;;;;;11.68;79.02;99602.87;108063;1256;72974;-80
2023/04/02 09:46:01;;;;;;;13.80;11.90;;;;;;;11.64;79.06;99605.15;108054;1256;61253;-80
2023/04/02 09:48:31;;;;;;;14.50;12.90;;;;;;;11.62;78.96;99606.30;108025;1254;61062;-80
2023/04/02 09:51:15;;;;;;;15.70;12.90;;;;;;;11.61;79.14;99608.19;108033;1257;75680;-79
2023/04/02 09:53:45;;;;;;;14.00;12.40;;;;;;;11.63;79.20;99606.14;108119;1256;73897;-79
2023/04/02 09:56:15;;;;;;;15.20;13.00;;;;;;;11.61;79.23;99610.76;108089;1256;73925;-79
2023/04/02 09:58:44;;;;;;;13.90;12.20;;;;;;;11.63;79.37;99606.63;108058;1254;62893;-82
2023/04/02 10:03:17;;;;;;;14.50;13.00;;;;;;;11.70;79.42;99607.86;104852;1290;602312;-75
2023/04/02 10:05:46;;;;;;;15.80;13.50;;;;;;;11.68;79.33;99613.77;107369;1266;60739;-74
2023/04/02 10:08:26;;;;;;;13.60;12.20;;;;;;;11.69;79.42;99611.20;107379;1266;61594;-76
2023/04/02 10:10:58;;;;;;;14.20;12.80;;;;;;;11.69;79.38;99610.73;108169;1254;71975;-74
2023/04/02 10:13:52;;;;;;;13.90;12.50;;;;;;;11.69;79.34;99614.68;108217;1254;72744;-75
2023/04/02 10:16:31;;;;;;;11.50;10.40;;;;;;;11.67;79.43;99614.90;104319;1253;5219228;-75
2023/04/02 10:19:13;;;;;;;10.80;9.70;;;;;;;11.63;79.26;99622.34;108313;1253;62311;-75
2023/04/02 10:21:42;;;;;;;10.60;9.50;;;;;;;11.63;79.35;99620.20;108342;1251;61222;-75
2023/04/02 10:24:12;;;;;;;9.90;8.80;;;;;;;11.69;79.44;99626.76;108379;1252;71862;-75
2023/04/02 10:27:02;;;;;;;9.10;8.20;;;;;;;11.75;79.50;99623.95;108450;1252;72867;-75
2023/04/02 10:29:30;;;;;;;10.50;9.40;;;;;;;11.81;79.42;99624.36;108486;1252;72078;-75
2023/04/02 10:32:10;;;;;;;9.10;8.00;;;;;;;11.85;79.33;99625.41;108419;1253;60157;-76
2023/04/02 10:35:02;;;;;;;7.80;7.00;;;;;;;11.85;79.20;99623.11;108300;1253;61305;-75
2023/04/02 10:37:45;;;;;;;6.90;6.20;;;;;;;11.84;79.09;99626.16;108305;1252;73225;-74
2023/04/02 10:40:25;;;;;;;7.10;5.70;;;;;;;11.84;79.01;99623.12;108267;1253;73789;-75
2023/04/02 10:43:16;;;;;;;6.30;5.60;;;;;;;11.91;79.12;99630.79;108267;1252;73998;-75
2023/04/02 10:46:19;;;;;;;5.20;4.70;;;;;;;11.97;79.12;99628.63;108326;1253;62209;-75
2023/04/02 10:49:28;;;;;;;6.60;4.90;;;;;;;12.03;78.94;99630.04;108107;1253;61555;-75
2023/04/02 10:51:58;;;;;;;5.60;5.00;;;;;;;12.09;78.85;99633.02;108080;1257;73083;-76
2023/04/02 10:54:36;;;;;;;5.30;4.30;;;;;;;12.15;78.79;99632.02;108202;1253;72782;-76
2023/04/02 10:57:10;;;;;;;4.70;4.10;;;;;;;12.18;78.56;99629.40;108186;1256;73092;-75
2023/04/02 10:59:45;;;;;;;4.20;3.10;;;;;;;12.17;78.26;99629.95;108175;1253;62654;-74
2023/04/02 11:02:22;;;;;;;4.10;3.70;;;;;;;12.17;78.11;99629.51;108143;1256;59391;-74
2023/04/02 11:04:50;;;;;;;4.20;3.50;;;;;;;12.15;77.93;99631.84;108234;1253;73735;-74
2023/04/02 11:07:23;;;;;;;4.70;3.30;;;;;;;12.10;77.87;99634.16;108163;1253;72317;-75
2023/04/02 11:09:53;;;;;;;3.30;2.80;;;;;;;12.06;77.73;99637.81;108214;1253;71417;-74
2023/04/02 11:12:45;;;;;;;6.40;3.10;;;;;;;12.01;77.56;99638.16;108230;1253;61520;-75
2023/04/02 11:15:18;;;;;;;3.90;3.10;;;;;;;11.99;77.50;99638.29;108213;1253;59502;-75
2023/04/02 11:17:46;;;;;;;3.90;2.60;;;;;;;11.94;77.61;99638.71;108222;1253;72081;-77
2023/04/02 11:20:58;;;;;;;2.80;2.10;;;;;;;11.91;77.72;99637.42;108292;1253;73920;-76
2023/04/02 11:23:29;;;;;;;3.00;2.40;;;;;;;11.96;77.87;99639.18;108290;1253;72552;-75
2023/04/02 11:26:37;;;;;;;3.40;2.50;;;;;;;12.01;77.98;99638.20;108274;1252;62277;-76
2023/04/02 11:29:28;;;;;;;3.40;2.50;;;;;;;12.07;78.12;99646.17;108307;1252;60515;-74
2023/04/02 11:32:41;;;;;;;5.20;3.70;;;;;;;12.12;78.09;99648.92;108338;1253;72969;-74
2023/04/02 11:35:31;;;;;;;4.50;3.70;;;;;;;12.11;77.97;99652.41;107924;1257;71727;-75
2023/04/02 11:38:03;;;;;;;5.10;4.50;;;;;;;12.06;77.88;99653.55;108410;1253;73883;-75
2023/04/02 11:41:06;;;;;;;6.20;4.50;;;;;;;11.96;77.84;99650.42;108274;1253;61632;-76
2023/04/02 11:43:36;;;;;;;4.10;3.40;;;;;;;11.86;77.93;99655.64;107824;1259;60264;-75
2023/04/02 11:46:31;;;;;;;4.20;3.60;;;;;;;11.80;78.11;99658.45;108284;1252;73007;-76
2023/04/02 11:49:36;;;;;;;4.10;3.10;;;;;;;11.76;78.26;99659.21;108345;1252;72748;-75
2023/04/02 11:52:19;;;;;;;3.20;2.60;;;;;;;11.77;78.40;99658.60;108228;1252;72316;-74
2023/04/02 11:55:15;;;;;;;3.30;2.70;;;;;;;11.79;78.70;99657.09;108329;1253;61991;-76
2023/04/02 11:57:51;;;;;;;3.20;2.60;;;;;;;11.82;78.50;99657.85;108238;1253;59679;-75
2023/04/02 12:00:38;;;;;;;3.70;2.70;;;;;;;11.82;78.58;99660.73;108259;1253;72673;-75
2023/04/02 12:03:40;;;;;;;3.20;2.50;;;;;;;11.85;78.47;99659.50;108309;1253;73622;-76
2023/04/02 12:06:18;;;;;;;;;;;;;;;11.84;78.45;99661.75;108349;1254;72141;-76
2023/04/02 12:09:03;;;;;;;3.70;2.90;;;;;;;11.83;78.42;99660.83;108322;1253;60867;-75
2023/04/02 12:11:36;;;;;;;4.80;3.40;;;;;;;11.78;78.16;99663.48;108284;1253;59801;-76